• Join FlightAware (Why Join?)
  • Login
  • US Flag 
02:55PM EDT


 

Airport Tracker/Info


-or-


 

Live Flight TrackerFlight Track Log ✈ VRT51 ✈ 06-Oct-2013 ✈ KBNA - KLQK

Flight Track Log - Related Links

Times and Time Zones

All times are in EDT time to prevent confusion due to time zone crossing. See the VRT51 flight status page for this flight to view local times or setup timezone preferences in your user account.

Time Position Orientation Groundspeed Altitude Reporting Facility
EDT Latitude Longitude Course Direction KTS MPH feet Rate Location/Type
11:47AM 36.1000 -86.6833 149° Southeast 168 193 1,300  Level Nashville TRACON
11:48AM 36.0333 -86.6333 149° Southeast 274 315 4,000 1,260 Climbing Nashville TRACON
11:49AM 36.0000 -86.5667 122° Southeast 277 319 4,200 1,320 Climbing Nashville TRACON
11:50AM 36.0167 -86.4833 76° East 302 348 6,300 2,880 Climbing Nashville TRACON
11:51AM 36.0169 -86.4281 90° East 313 360 8,000 3,720 Climbing Memphis Center
11:52AM 36.0344 -86.3219 78° East 363 418 12,000 3,480 Climbing Memphis Center
11:53AM 36.0619 -86.2078 73° East 339 390 15,000 1,500 Climbing Memphis Center
11:54AM 36.0633 -86.0586 89° East 383 441 15,000  Level Memphis Center
11:55AM 36.0169 -85.9278 114° Southeast 404 465 15,000  Level Memphis Center
11:57AM 35.9786 -85.6733 100° East 391 450 15,100  Climbing Atlanta Center
11:58AM 35.9489 -85.5522 107° East 374 430 15,100  Level Atlanta Center
11:59AM 35.9003 -85.4308 116° Southeast 374 430 15,100  Level Atlanta Center
12:00PM 35.8536 -85.3094 115° Southeast 405 466 15,100  Level Atlanta Center
12:01PM 35.8069 -85.1858 115° Southeast 410 472 15,100  Level Atlanta Center
12:02PM 35.7600 -85.0675 116° Southeast 398 458 15,100  Level Atlanta Center
12:03PM 35.7128 -84.9467 116° Southeast 391 450 15,100  Level Atlanta Center
12:04PM 35.6656 -84.8286 116° Southeast 385 443 15,100  Level Atlanta Center
12:05PM 35.6206 -84.7106 115° Southeast 385 443 15,100 -60 Level Atlanta Center
12:06PM 35.5753 -84.5928 115° Southeast 385 443 15,000 -120 Descending Atlanta Center
12:07PM 35.5256 -84.4725 117° Southeast 385 443 14,900 -60 Descending Atlanta Center
12:08PM 35.4800 -84.3550 115° Southeast 385 443 14,900  Level Atlanta Center
12:09PM 35.4344 -84.2400 116° Southeast 385 443 14,900 -540 Level Atlanta Center
12:10PM 35.3886 -84.1253 116° Southeast 385 443 13,900 -1,260 Descending Atlanta Center
12:11PM 35.3428 -84.0108 116° Southeast 380 437 12,400 -1,500 Descending Atlanta Center
12:12PM 35.2967 -83.8989 117° Southeast 375 432 11,000 -780 Descending Atlanta Center
12:13PM 35.2528 -83.7869 116° Southeast 370 426 10,900 -240 Descending Atlanta Center
12:14PM 35.2086 -83.6753 116° Southeast 365 420 10,600 -540 Descending Atlanta Center
12:15PM 35.1644 -83.5686 117° Southeast 365 420 9,900 -960 Descending Atlanta Center
12:16PM 35.1244 -83.4775 118° Southeast 337 388 8,700 -1,200 Descending Atlanta Center
12:17PM 35.0906 -83.3889 115° Southeast 303 349 7,600 -780 Descending Atlanta Center
12:18PM 35.0567 -83.3106 118° Southeast 283 326 7,200 -180 Descending Atlanta Center
12:19PM 35.0250 -83.2247 114° Southeast 267 307 7,300  Climbing Atlanta Center
12:20PM 34.9847 -83.1336 118° Southeast 267 307 7,300 -120 Level Atlanta Center
12:21PM 34.9756 -83.0503 98° East 252 290 7,100 -180 Descending Atlanta Center
12:22PM 34.9875 -82.9561 81° East 257 296 7,000 -60 Descending Atlanta Center
12:23PM 34.9969 -82.8547 83° East 280 322 7,000 -300 Level Atlanta Center
12:24PM 35.0064 -82.7581 83° East 286 329 6,400 -780 Descending Atlanta Center
12:25PM 35.0158 -82.6692 83° East 281 323 5,500 -840 Descending Atlanta Center
12:26PM 35.0106 -82.5831 94° East 265 305 4,800 -780 Descending Atlanta Center
12:27PM 34.9622 -82.5383 143° Southeast 207 238 4,000 -780 Descending Atlanta Center
12:28PM 34.9189 -82.5747 215° Southwest 144 166 3,300 -360 Descending Atlanta Center
12:29PM 34.8811 -82.5625 165° South 144 166 3,300 1,800 Level Atlanta Center
12:30PM 34.8392 -82.5583 175° South 144 166 7,000 3,660 Climbing Atlanta Center
12:32PM 34.8000 -82.7000 219° Southwest  Level FlightAware Approximate
12:39PM 34.8100 -82.7029 219° Southwest  Level Estimated
12:40PM 34.8100 -82.7029 219° Southwest  Level Estimated